Athena — WDG6862 — position and weather

sailwx.info

Track history (hours):
 
Tides and Currents Weather Stations Pressure Air Temp Water Temp Dewpoint Dewpoint Depression Visibility Wind Speed Wind Dir Waves Ship Positions

Athena

Owner: Seabulk Towing Inc., Fort Lauderdale, FL. More information available from US FCC via Universal Licensing System and Coast Guard Vessel Documentation Center.

Last reported at 2017-Nov-10 09:22 UTC. Time now 2017-Nov-19 18:18 UTC.
Position N 27°45' W 082°31'.
Warning: this ship's position is 9 days out of date.

; draft 6 m.

Type: Tug. MMSI: 367561460.

Date/timePositionNaut miles runAvg speedWind from/ knotsBaromVisibWave heightAir tempDewpointWater temp
2017-Nov-10 09:22N 27°45' W 082°31'6 7.8
2017-Nov-10 08:38N 27°49' W 082°27'1 8.6
2017-Nov-10 08:29N 27°51' W 082°27'4 8.5
2017-Nov-10 08:00N 27°55' W 082°27'0 0.9
2017-Nov-10 07:30N 27°55' W 082°27'0 0.0
2017-Nov-10 07:00N 27°55' W 082°27'0 0.0
2017-Nov-10 06:31N 27°55' W 082°27'0 0.0
2017-Nov-10 06:00N 27°55' W 082°27'0 0.0
2017-Nov-10 05:30N 27°55' W 082°27'0 0.0
2017-Nov-10 05:00N 27°55' W 082°27'0 0.0
2017-Nov-10 04:30N 27°55' W 082°27'0 0.0
2017-Nov-10 04:00N 27°55' W 082°27'0 0.0
2017-Nov-10 03:30N 27°55' W 082°27'0 0.0
2017-Nov-10 03:00N 27°55' W 082°27'0 0.0
2017-Nov-10 02:30N 27°55' W 082°27'0 0.0
2017-Nov-10 02:00N 27°55' W 082°27'0 0.5
2017-Nov-10 01:30N 27°56' W 082°27'1 2.2
2017-Nov-10 01:00N 27°57' W 082°27'0 0.2
2017-Nov-10 00:30N 27°57' W 082°27'0 0.4
2017-Nov-10 00:00N 27°57' W 082°27'1 1.9
2017-Nov-09 23:30N 27°56' W 082°27'0 0.6
2017-Nov-09 23:00N 27°55' W 082°27'0 0.0
2017-Nov-09 22:30N 27°55' W 082°27'0 0.0
2017-Nov-09 22:00N 27°55' W 082°27'0 0.0
2017-Nov-09 21:30N 27°55' W 082°27'0 0.0
2017-Nov-09 21:00N 27°55' W 082°27'0 0.0
2017-Nov-09 20:30N 27°55' W 082°27'0 0.0
2017-Nov-09 20:00N 27°55' W 082°27'0 0.0
2017-Nov-09 19:30N 27°55' W 082°27'0 0.0
2017-Nov-09 19:00N 27°55' W 082°27'0 0.0
2017-Nov-09 18:30N 27°55' W 082°27'0 0.0
2017-Nov-09 18:00N 27°55' W 082°27'1 1.9
2017-Nov-09 17:31N 27°55' W 082°26'0 0.2
2017-Nov-09 17:00N 27°55' W 082°26'2 3.4
2017-Nov-09 16:30N 27°54' W 082°26'0 0.8
2017-Nov-09 16:00N 27°54' W 082°26'1 2.9
2017-Nov-09 15:30N 27°55' W 082°27'0 0.0
2017-Nov-09 15:00N 27°55' W 082°27'2 3.1
2017-Nov-09 14:30N 27°57' W 082°27'0 0.2
2017-Nov-09 14:00N 27°57' W 082°27'0 0.0
2017-Nov-09 13:31N 27°57' W 082°27'0 0.0
2017-Nov-09 13:00N 27°57' W 082°27'1 1.9
2017-Nov-09 12:30N 27°56' W 082°27'5 9.0
2017-Nov-09 12:00N 27°51' W 082°27'4 8.1
2017-Nov-09 11:29N 27°48' W 082°29'4 8.8
2017-Nov-09 11:00N 27°47' W 082°34'4 8.2
2017-Nov-09 10:30N 27°51' W 082°33'0 0.6
2017-Nov-09 09:52N 27°52' W 082°33'0 0.4
2017-Nov-09 09:30N 27°52' W 082°33'0 0.0
2017-Nov-09 09:00N 27°52' W 082°33'0 0.0
2017-Nov-09 08:30N 27°52' W 082°33'0 0.0
2017-Nov-09 08:00N 27°52' W 082°33'0 0.0
2017-Nov-09 07:30N 27°52' W 082°33'0 0.0
2017-Nov-09 07:00N 27°52' W 082°33'0 0.0
2017-Nov-09 06:30N 27°52' W 082°33'0 0.0
2017-Nov-09 06:00N 27°52' W 082°33'0 0.0
2017-Nov-09 05:30N 27°52' W 082°33'0 0.0
2017-Nov-09 05:00N 27°52' W 082°33'0 0.0
2017-Nov-09 04:30N 27°52' W 082°33'0 0.0
2017-Nov-09 04:00N 27°52' W 082°33'0 0.0
2017-Nov-09 03:30N 27°52' W 082°33'0 0.0
2017-Nov-09 03:00N 27°52' W 082°33'0 0.0
2017-Nov-09 02:30N 27°52' W 082°33'0 0.0
2017-Nov-09 02:00N 27°52' W 082°33'0 0.0
2017-Nov-09 01:30N 27°52' W 082°33'0 0.0
2017-Nov-09 01:00N 27°52' W 082°33'0 0.0
2017-Nov-09 00:30N 27°52' W 082°33'0 0.0
2017-Nov-09 00:00N 27°52' W 082°33'0 0.0
2017-Nov-08 23:30N 27°52' W 082°33'0 0.0
2017-Nov-08 23:01N 27°52' W 082°33'0 0.0
2017-Nov-08 22:30N 27°52' W 082°33'0 0.0
2017-Nov-08 22:00N 27°52' W 082°33'0 0.0
2017-Nov-08 21:30N 27°52' W 082°33'0 0.0
2017-Nov-08 21:00N 27°52' W 082°33'0 0.0
2017-Nov-08 20:30N 27°52' W 082°33'0 0.0
2017-Nov-08 20:00N 27°52' W 082°33'0 0.0
2017-Nov-08 19:30N 27°52' W 082°33'0 0.5
2017-Nov-08 19:01N 27°52' W 082°33'0 0.2
2017-Nov-08 18:31N 27°52' W 082°33'8 2.1
2017-Nov-08 14:34N 27°48' W 082°24'0 0.9
2017-Nov-08 14:12N 27°48' W 082°25'0 2.2
2017-Nov-08 14:00N 27°48' W 082°25'3 5.5
2017-Nov-08 13:30N 27°48' W 082°28'2 3.4
2017-Nov-08 12:56N 27°50' W 082°27'4 9.4
2017-Nov-08 12:30N 27°54' W 082°26'2 3.7
2017-Nov-08 12:00N 27°55' W 082°27'0 0.0
2017-Nov-08 11:30N 27°55' W 082°27'0 0.0
2017-Nov-08 11:01N 27°55' W 082°27'0 0.0
2017-Nov-08 10:30N 27°55' W 082°27'0 0.0
2017-Nov-08 10:00N 27°55' W 082°27'0 0.0
2017-Nov-08 09:30N 27°55' W 082°27'0 0.0
2017-Nov-08 09:00N 27°55' W 082°27'0 0.0
2017-Nov-08 08:30N 27°55' W 082°27'0 0.0
2017-Nov-08 08:01N 27°55' W 082°27'0 0.0
2017-Nov-08 07:30N 27°55' W 082°27'0 0.0
2017-Nov-08 07:00N 27°55' W 082°27'2 3.1
2017-Nov-08 06:30N 27°57' W 082°27'0 0.8
2017-Nov-08 06:00N 27°56' W 082°27'2 3.1
2017-Nov-08 05:31N 27°55' W 082°27'2 4.0
2017-Nov-08 05:00N 27°53' W 082°26'2 4.8
2017-Nov-08 04:30N 27°55' W 082°27'0 0.0
2017-Nov-08 04:00N 27°55' W 082°27'0 0.0
2017-Nov-08 03:31N 27°55' W 082°27'0 0.0
2017-Nov-08 03:00N 27°55' W 082°27'0 0.0
2017-Nov-08 02:31N 27°55' W 082°27'0 0.0
2017-Nov-08 02:00N 27°55' W 082°27'0 0.0
2017-Nov-08 01:30N 27°55' W 082°27'0 0.0
2017-Nov-08 01:00N 27°55' W 082°27'0 0.0
2017-Nov-08 00:30N 27°55' W 082°27'0 0.0
2017-Nov-08 00:00N 27°55' W 082°27'0 0.0
2017-Nov-07 23:30N 27°55' W 082°27'0 0.0
2017-Nov-07 23:00N 27°55' W 082°27'0 0.0
2017-Nov-07 22:30N 27°55' W 082°27'0 0.0
2017-Nov-07 22:00N 27°55' W 082°27'0 0.0
2017-Nov-07 21:30N 27°55' W 082°27'3 6.6
2017-Nov-07 21:00N 27°52' W 082°27'5 6.8
2017-Nov-07 20:20N 27°48' W 082°25'1 0.1
2017-Nov-07 10:53N 27°49' W 082°26'3 4.8
2017-Nov-07 10:19N 27°51' W 082°27'310.6
2017-Nov-07 10:01N 27°54' W 082°26'1 2.6
2017-Nov-07 09:30N 27°56' W 082°26'1 1.7
2017-Nov-07 09:00N 27°55' W 082°27'0 0.0
2017-Nov-07 08:30N 27°55' W 082°27'1 2.2
2017-Nov-07 08:00N 27°54' W 082°26'2 3.7
2017-Nov-07 07:30N 27°52' W 082°26'1 1.4
2017-Nov-07 07:00N 27°53' W 082°26'2 4.5
2017-Nov-07 06:30N 27°55' W 082°27'0 0.0
2017-Nov-07 06:01N 27°55' W 082°27'0 0.4
2017-Nov-07 05:30N 27°55' W 082°27'0 0.4
2017-Nov-07 05:00N 27°55' W 082°27'0 0.5
2017-Nov-07 04:30N 27°55' W 082°27'0 0.0
2017-Nov-07 04:00N 27°55' W 082°27'0 0.0
2017-Nov-07 03:30N 27°55' W 082°27'0 0.0
2017-Nov-07 03:00N 27°55' W 082°27'0 0.0
2017-Nov-07 02:31N 27°55' W 082°27'0 0.0
2017-Nov-07 02:00N 27°55' W 082°27'0 0.0
2017-Nov-07 01:30N 27°55' W 082°27'0 0.0
2017-Nov-07 01:00N 27°55' W 082°27'0 0.0
2017-Nov-07 00:30N 27°55' W 082°27'0 0.0
2017-Nov-07 00:00N 27°55' W 082°27'0 0.0
2017-Nov-06 23:30N 27°55' W 082°27'0 0.0
2017-Nov-06 23:00N 27°55' W 082°27'0 0.0
2017-Nov-06 22:30N 27°55' W 082°27'0 0.0
2017-Nov-06 22:00N 27°55' W 082°27'0 0.0
2017-Nov-06 21:30N 27°55' W 082°27'1 1.9
2017-Nov-06 21:00N 27°56' W 082°26'0 0.5
2017-Nov-06 20:30N 27°56' W 082°26'1 0.1
2017-Nov-06 02:30N 27°55' W 082°27'0 0.0
2017-Nov-06 02:00N 27°55' W 082°27'0 0.0
2017-Nov-06 01:30N 27°55' W 082°27'0 0.0
2017-Nov-06 01:00N 27°55' W 082°27'0 0.0
2017-Nov-06 00:30N 27°55' W 082°27'0 0.0
2017-Nov-06 00:00N 27°55' W 082°27'0 0.0
2017-Nov-05 23:31N 27°55' W 082°27'0 0.0
2017-Nov-05 23:00N 27°55' W 082°27'0 0.0
2017-Nov-05 22:30N 27°55' W 082°27'0 0.0
2017-Nov-05 22:00N 27°55' W 082°27'0 0.0
2017-Nov-05 21:30N 27°55' W 082°27'0 0.0
2017-Nov-05 21:00N 27°55' W 082°27'0 0.0
2017-Nov-05 20:30N 27°55' W 082°27'0 0.0
2017-Nov-05 20:00N 27°55' W 082°27'0 0.0
2017-Nov-05 19:30N 27°55' W 082°27'0 0.6
2017-Nov-05 19:00N 27°55' W 082°27'1 1.1
2017-Nov-05 18:30N 27°55' W 082°26'2 3.3
2017-Nov-05 18:01N 27°53' W 082°26'2 4.9
2017-Nov-05 17:30N 27°55' W 082°27'0 0.0
2017-Nov-05 17:01N 27°55' W 082°27'0 0.0
2017-Nov-05 16:30N 27°55' W 082°27'0 0.6
2017-Nov-05 16:00N 27°55' W 082°27'0 0.3
2017-Nov-05 15:30N 27°55' W 082°27'1 1.1
2017-Nov-05 15:00N 27°54' W 082°26'2 3.0
2017-Nov-05 14:29N 27°53' W 082°26'2 4.2
2017-Nov-05 14:00N 27°55' W 082°27'0 1.0
2017-Nov-05 13:30N 27°55' W 082°27'0 0.0
2017-Nov-05 13:00N 27°55' W 082°27'0 0.0
2017-Nov-05 12:30N 27°55' W 082°27'1 1.2
2017-Nov-05 12:00N 27°56' W 082°27'0 0.1
2017-Nov-05 11:30N 27°56' W 082°27'1 2.1
2017-Nov-05 11:00N 27°55' W 082°27'0 0.1
2017-Nov-05 10:30N 27°55' W 082°27'0 0.9
2017-Nov-05 10:00N 27°55' W 082°27'0 0.0
2017-Nov-05 09:30N 27°55' W 082°27'0 0.0
2017-Nov-05 09:01N 27°55' W 082°27'0 0.0
2017-Nov-05 08:30N 27°55' W 082°27'0 0.0
2017-Nov-05 08:00N 27°55' W 082°27'0 0.0
2017-Nov-05 07:30N 27°55' W 082°27'0 0.0
2017-Nov-05 07:00N 27°55' W 082°27'0 0.0
2017-Nov-05 06:30N 27°55' W 082°27'0 0.0
2017-Nov-05 06:01N 27°55' W 082°27'0 0.0
2017-Nov-05 05:30N 27°55' W 082°27'0 0.0
2017-Nov-05 05:00N 27°55' W 082°27'0 0.0
2017-Nov-05 04:30N 27°55' W 082°27'0 0.0
2017-Nov-05 04:00N 27°55' W 082°27'0 0.0
2017-Nov-05 03:30N 27°55' W 082°27'0 0.0
2017-Nov-05 03:00N 27°55' W 082°27'0 0.0
2017-Nov-05 02:30N 27°55' W 082°27'0 0.0
2017-Nov-05 02:00N 27°55' W 082°27'0 0.0
2017-Nov-05 01:31N 27°55' W 082°27'0 0.0
2017-Nov-05 01:01N 27°55' W 082°27'0 0.0
2017-Nov-05 00:30N 27°55' W 082°27'0 0.0
2017-Nov-05 00:00N 27°55' W 082°27'0 0.0
2017-Nov-04 23:30N 27°55' W 082°27'0 0.0
2017-Nov-04 23:00N 27°55' W 082°27'0 0.0
2017-Nov-04 22:30N 27°55' W 082°27'0 0.0
2017-Nov-04 22:00N 27°55' W 082°27'0 0.0
2017-Nov-04 21:30N 27°55' W 082°27'0 0.0
2017-Nov-04 21:00N 27°55' W 082°27'0 0.0
2017-Nov-04 20:30N 27°55' W 082°27'0 0.0
2017-Nov-04 20:00N 27°55' W 082°27'0 0.0
2017-Nov-04 19:30N 27°55' W 082°27'0 0.0
2017-Nov-04 19:00N 27°55' W 082°27'0 0.0
2017-Nov-04 18:31N 27°55' W 082°27'0 0.0
2017-Nov-04 18:00N 27°55' W 082°27'0 0.0
2017-Nov-04 17:30N 27°55' W 082°27'0 0.0
2017-Nov-04 17:00N 27°55' W 082°27'0 0.0
2017-Nov-04 16:31N 27°55' W 082°27'0 0.0
2017-Nov-04 16:00N 27°55' W 082°27'0 0.8
2017-Nov-04 15:30N 27°55' W 082°27'0 0.4
2017-Nov-04 15:01N 27°55' W 082°27'2 3.7
2017-Nov-04 14:29N 27°53' W 082°26'1 2.8
2017-Nov-04 14:00N 27°54' W 082°26'1 2.4
2017-Nov-04 13:30N 27°55' W 082°27'0 0.0
2017-Nov-04 13:00N 27°55' W 082°27'0 0.0
2017-Nov-04 12:30N 27°55' W 082°27'0 0.0
2017-Nov-04 12:00N 27°55' W 082°27'0 0.0
2017-Nov-04 11:30N 27°55' W 082°27'0 0.0
2017-Nov-04 11:00N 27°55' W 082°27'0 0.0
2017-Nov-04 10:31N 27°55' W 082°27'0 0.0
2017-Nov-04 10:00N 27°55' W 082°27'0 0.0
2017-Nov-04 09:30N 27°55' W 082°27'0 0.0
2017-Nov-04 09:00N 27°55' W 082°27'0 0.0
2017-Nov-04 08:30N 27°55' W 082°27'0 0.0
2017-Nov-04 08:00N 27°55' W 082°27'0 0.0
2017-Nov-04 07:30N 27°55' W 082°27'0 0.0
2017-Nov-04 07:00N 27°55' W 082°27'0 0.0
2017-Nov-04 06:30N 27°55' W 082°27'0 0.0
2017-Nov-04 06:00N 27°55' W 082°27'0 0.0
2017-Nov-04 05:30N 27°55' W 082°27'0 0.0
2017-Nov-04 05:00N 27°55' W 082°27'0 0.0
2017-Nov-04 04:30N 27°55' W 082°27'0 0.0
2017-Nov-04 04:01N 27°55' W 082°27'0 0.0
2017-Nov-04 03:30N 27°55' W 082°27'0 0.0
2017-Nov-04 03:00N 27°55' W 082°27'0 0.0
2017-Nov-04 02:30N 27°55' W 082°27'0 0.0
2017-Nov-04 02:00N 27°55' W 082°27'0 0.0
2017-Nov-04 01:30N 27°55' W 082°27'0 0.0
2017-Nov-04 01:00N 27°55' W 082°27'0 0.0
2017-Nov-04 00:31N 27°55' W 082°27'0 0.0
2017-Nov-04 00:00N 27°55' W 082°27'0 0.0
2017-Nov-03 23:30N 27°55' W 082°27'0 0.0
2017-Nov-03 23:00N 27°55' W 082°27'0 0.0
2017-Nov-03 22:30N 27°55' W 082°27'0 0.0
2017-Nov-03 22:00N 27°55' W 082°27'0 0.0
2017-Nov-03 21:31N 27°55' W 082°27'0 0.0
2017-Nov-03 21:00N 27°55' W 082°27'1 1.9
2017-Nov-03 20:30N 27°55' W 082°26'0 0.0
2017-Nov-03 20:00N 27°55' W 082°26'0 0.0
2017-Nov-03 19:30N 27°55' W 082°26'0 0.7
2017-Nov-03 19:00N 27°55' W 082°26'1 2.2
2017-Nov-03 18:31N 27°55' W 082°27'0 0.0
2017-Nov-03 18:00N 27°55' W 082°27'0 0.0
2017-Nov-03 17:31N 27°55' W 082°27'0 0.0
2017-Nov-03 17:00N 27°55' W 082°27'0 0.0
2017-Nov-03 16:30N 27°55' W 082°27'0 0.0
2017-Nov-03 16:00N 27°55' W 082°27'0 0.0
2017-Nov-03 15:30N 27°55' W 082°27'0 0.0
2017-Nov-03 15:00N 27°55' W 082°27'0 0.0
2017-Nov-03 14:30N 27°55' W 082°27'0 0.0
2017-Nov-03 14:00N 27°55' W 082°27'0 0.0
2017-Nov-03 13:30N 27°55' W 082°27'0 0.0
2017-Nov-03 13:00N 27°55' W 082°27'0 0.0
2017-Nov-03 12:30N 27°55' W 082°27'0 0.0
2017-Nov-03 12:00N 27°55' W 082°27'0 0.0
2017-Nov-03 11:31N 27°55' W 082°27'0 0.0
2017-Nov-03 11:01N 27°55' W 082°27'0 0.0
2017-Nov-03 10:30N 27°55' W 082°27'0 0.0
2017-Nov-03 10:01N 27°55' W 082°27'0 0.0
2017-Nov-03 09:30N 27°55' W 082°27'0 0.0
2017-Nov-03 09:00N 27°55' W 082°27'0 0.0
2017-Nov-03 08:30N 27°55' W 082°27'0 0.0
2017-Nov-03 08:01N 27°55' W 082°27'0 0.0
2017-Nov-03 07:31N 27°55' W 082°27'0 0.0
2017-Nov-03 07:01N 27°55' W 082°27'0 0.0
2017-Nov-03 06:30N 27°55' W 082°27'0 0.0
2017-Nov-03 06:00N 27°55' W 082°27'0 0.0
2017-Nov-03 05:31N 27°55' W 082°27'0 0.0
2017-Nov-03 05:00N 27°55' W 082°27'0 0.0
2017-Nov-03 04:31N 27°55' W 082°27'0 0.0
2017-Nov-03 04:00N 27°55' W 082°27'0 0.0
2017-Nov-03 03:30N 27°55' W 082°27'0 0.0
2017-Nov-03 03:01N 27°55' W 082°27'0 0.0
2017-Nov-03 02:31N 27°55' W 082°27'0 0.0
2017-Nov-03 02:01N 27°55' W 082°27'0 0.0
2017-Nov-03 01:30N 27°55' W 082°27'0 0.0
2017-Nov-03 01:00N 27°55' W 082°27'0 0.0
2017-Nov-03 00:30N 27°55' W 082°27'0 0.0
2017-Nov-03 00:00N 27°55' W 082°27'0 0.0
2017-Nov-02 23:30N 27°55' W 082°27'0 0.0
2017-Nov-02 23:00N 27°55' W 082°27'0 0.1
2017-Nov-02 22:30N 27°55' W 082°27'5 9.2
2017-Nov-02 22:00N 27°51' W 082°27'3 4.9
2017-Nov-02 21:26N 27°48' W 082°25'0 0.2
2017-Nov-02 20:21N 27°48' W 082°25'3 8.0
2017-Nov-02 19:59N 27°51' W 082°27'4 9.1
2017-Nov-02 19:31N 27°55' W 082°27'0 0.0
2017-Nov-02 19:01N 27°55' W 082°27'0 0.0
2017-Nov-02 18:30N 27°55' W 082°27'0 0.7
2017-Nov-02 18:01N 27°55' W 082°27'0 0.1
2017-Nov-02 17:30N 27°55' W 082°27'0 0.8
2017-Nov-02 17:01N 27°55' W 082°27'0 0.0
2017-Nov-02 16:31N 27°55' W 082°27'0 0.0
2017-Nov-02 16:01N 27°55' W 082°27'0 0.0
2017-Nov-02 15:30N 27°55' W 082°27'0 0.0
2017-Nov-02 15:01N 27°55' W 082°27'0 0.0
2017-Nov-02 14:30N 27°55' W 082°27'0 0.0
2017-Nov-02 14:00N 27°55' W 082°27'0 0.7
2017-Nov-02 13:31N 27°56' W 082°27'1 1.0
2017-Nov-02 13:01N 27°56' W 082°27'1 1.3
2017-Nov-02 12:31N 27°57' W 082°27'0 0.1
2017-Nov-02 12:01N 27°57' W 082°27'0 0.1
2017-Nov-02 11:31N 27°57' W 082°27'1 1.3
2017-Nov-02 11:01N 27°56' W 082°27'2 3.4
2017-Nov-02 10:30N 27°55' W 082°25'0 0.3
2017-Nov-02 10:00N 27°55' W 082°25'0 0.7
2017-Nov-02 09:30N 27°55' W 082°26'0 0.0
2017-Nov-02 09:01N 27°55' W 082°26'0 0.0
2017-Nov-02 08:30N 27°55' W 082°26'0 0.0
2017-Nov-02 08:01N 27°55' W 082°26'0 0.0
2017-Nov-02 07:31N 27°55' W 082°26'0 0.0
2017-Nov-02 07:00N 27°55' W 082°26'0 0.0
2017-Nov-02 06:30N 27°55' W 082°26'0 0.0
2017-Nov-02 06:00N 27°55' W 082°26'1 1.5
2017-Nov-02 05:31N 27°55' W 082°27'1 1.0
2017-Nov-02 05:01N 27°55' W 082°27'0 0.0
2017-Nov-02 04:30N 27°55' W 082°27'0 0.0
2017-Nov-02 04:00N 27°55' W 082°27'0 0.0
2017-Nov-02 03:30N 27°55' W 082°27'0 0.0
2017-Nov-02 03:01N 27°55' W 082°27'0 0.0
2017-Nov-02 02:30N 27°55' W 082°27'0 0.0
2017-Nov-02 02:01N 27°55' W 082°27'0 0.0
2017-Nov-02 01:30N 27°55' W 082°27'0 0.0
2017-Nov-02 01:00N 27°55' W 082°27'0 0.0
2017-Nov-02 00:31N 27°55' W 082°27'0 0.0
2017-Nov-02 00:01N 27°55' W 082°27'0 0.0
2017-Nov-01 23:30N 27°55' W 082°27'0 0.0
2017-Nov-01 23:01N 27°55' W 082°27'0 0.0
2017-Nov-01 22:31N 27°55' W 082°27'0 0.0
2017-Nov-01 22:01N 27°55' W 082°27'0 0.0
2017-Nov-01 21:30N 27°55' W 082°27'0 0.0
2017-Nov-01 21:00N 27°55' W 082°27'0 0.0
2017-Nov-01 20:31N 27°55' W 082°27'0 0.0
2017-Nov-01 20:01N 27°55' W 082°27'0 0.0
2017-Nov-01 19:30N 27°55' W 082°27'0 0.0
2017-Nov-01 19:00N 27°55' W 082°27'0 0.0
2017-Nov-01 18:31N 27°55' W 082°27'0 0.0
2017-Nov-01 02:00N 27°55' W 082°27'0 0.0
2017-Nov-01 01:30N 27°55' W 082°27'0 0.0
2017-Nov-01 01:01N 27°55' W 082°27'0 0.0
2017-Nov-01 00:31N 27°55' W 082°27'0 0.0
2017-Nov-01 00:00N 27°55' W 082°27'0 0.8
2017-Oct-31 23:30N 27°55' W 082°27'1 2.0
2017-Oct-31 23:00N 27°56' W 082°26'2 3.0
2017-Oct-31 22:31N 27°54' W 082°26'1 2.5
2017-Oct-31 22:00N 27°55' W 082°27'0 0.0
2017-Oct-31 21:31N 27°55' W 082°27'0 0.0
2017-Oct-31 21:01N 27°55' W 082°27'0 0.0
2017-Oct-31 20:31N 27°55' W 082°27'0 0.0
2017-Oct-31 20:01N 27°55' W 082°27'0 0.0
2017-Oct-31 19:31N 27°55' W 082°27'0 0.0
2017-Oct-31 19:00N 27°55' W 082°27'0 0.0
2017-Oct-31 18:30N 27°55' W 082°27'1 2.7
2017-Oct-31 18:01N 27°54' W 082°26'1 1.9
2017-Oct-31 17:31N 27°54' W 082°25'1 1.7
2017-Oct-31 17:00N 27°54' W 082°26'2 3.1
2017-Oct-31 16:30N 27°53' W 082°27'2 4.5
2017-Oct-31 16:00N 27°55' W 082°27'0 0.0
2017-Oct-31 15:31N 27°55' W 082°27'0 0.1
2017-Oct-31 15:00N 27°55' W 082°27'0 0.1
2017-Oct-31 14:30N 27°55' W 082°27'0 0.0
2017-Oct-31 14:01N 27°55' W 082°27'2 4.1
2017-Oct-31 13:30N 27°53' W 082°26'5 7.4
2017-Oct-31 12:49N 27°48' W 082°25'0 0.7
2017-Oct-31 12:30N 27°48' W 082°25'1 1.4
2017-Oct-31 12:01N 27°48' W 082°25'3 5.2
2017-Oct-31 11:30N 27°48' W 082°28'3 5.4
2017-Oct-31 11:00N 27°51' W 082°27'4 8.9
2017-Oct-31 10:30N 27°55' W 082°27'0 0.5
2017-Oct-31 10:01N 27°55' W 082°27'0 0.0
2017-Oct-31 09:30N 27°55' W 082°27'  
Track history (hours):
 
Tides and Currents Weather Stations Pressure Air Temp Water Temp Dewpoint Dewpoint Depression Visibility Wind Speed Wind Dir Waves Ship Positions

Athena

Owner: Seabulk Towing Inc., Fort Lauderdale, FL. More information available from US FCC via Universal Licensing System and Coast Guard Vessel Documentation Center.

Last reported at 2017-Nov-10 09:22 UTC. Time now 2017-Nov-19 18:18 UTC.
Position N 27°45' W 082°31'.
Warning: this ship's position is 9 days out of date.

; draft 6 m.

Type: Tug. MMSI: 367561460.

Date/timePositionNaut miles runAvg speedWind from/ knotsBaromVisibWave heightAir tempDewpointWater temp
2017-Nov-10 09:22N 27°45' W 082°31'6 7.8
2017-Nov-10 08:38N 27°49' W 082°27'1 8.6
2017-Nov-10 08:29N 27°51' W 082°27'4 8.5
2017-Nov-10 08:00N 27°55' W 082°27'0 0.9
2017-Nov-10 07:30N 27°55' W 082°27'0 0.0
2017-Nov-10 07:00N 27°55' W 082°27'0 0.0
2017-Nov-10 06:31N 27°55' W 082°27'0 0.0
2017-Nov-10 06:00N 27°55' W 082°27'0 0.0
2017-Nov-10 05:30N 27°55' W 082°27'0 0.0
2017-Nov-10 05:00N 27°55' W 082°27'0 0.0
2017-Nov-10 04:30N 27°55' W 082°27'0 0.0
2017-Nov-10 04:00N 27°55' W 082°27'0 0.0
2017-Nov-10 03:30N 27°55' W 082°27'0 0.0
2017-Nov-10 03:00N 27°55' W 082°27'0 0.0
2017-Nov-10 02:30N 27°55' W 082°27'0 0.0
2017-Nov-10 02:00N 27°55' W 082°27'0 0.5
2017-Nov-10 01:30N 27°56' W 082°27'1 2.2
2017-Nov-10 01:00N 27°57' W 082°27'0 0.2
2017-Nov-10 00:30N 27°57' W 082°27'0 0.4
2017-Nov-10 00:00N 27°57' W 082°27'1 1.9
2017-Nov-09 23:30N 27°56' W 082°27'0 0.6
2017-Nov-09 23:00N 27°55' W 082°27'0 0.0
2017-Nov-09 22:30N 27°55' W 082°27'0 0.0
2017-Nov-09 22:00N 27°55' W 082°27'0 0.0
2017-Nov-09 21:30N 27°55' W 082°27'0 0.0
2017-Nov-09 21:00N 27°55' W 082°27'0 0.0
2017-Nov-09 20:30N 27°55' W 082°27'0 0.0
2017-Nov-09 20:00N 27°55' W 082°27'0 0.0
2017-Nov-09 19:30N 27°55' W 082°27'0 0.0
2017-Nov-09 19:00N 27°55' W 082°27'0 0.0
2017-Nov-09 18:30N 27°55' W 082°27'0 0.0
2017-Nov-09 18:00N 27°55' W 082°27'1 1.9
2017-Nov-09 17:31N 27°55' W 082°26'0 0.2
2017-Nov-09 17:00N 27°55' W 082°26'2 3.4
2017-Nov-09 16:30N 27°54' W 082°26'0 0.8
2017-Nov-09 16:00N 27°54' W 082°26'1 2.9
2017-Nov-09 15:30N 27°55' W 082°27'0 0.0
2017-Nov-09 15:00N 27°55' W 082°27'2 3.1
2017-Nov-09 14:30N 27°57' W 082°27'0 0.2
2017-Nov-09 14:00N 27°57' W 082°27'0 0.0
2017-Nov-09 13:31N 27°57' W 082°27'0 0.0
2017-Nov-09 13:00N 27°57' W 082°27'1 1.9
2017-Nov-09 12:30N 27°56' W 082°27'5 9.0
2017-Nov-09 12:00N 27°51' W 082°27'4 8.1
2017-Nov-09 11:29N 27°48' W 082°29'4 8.8
2017-Nov-09 11:00N 27°47' W 082°34'4 8.2
2017-Nov-09 10:30N 27°51' W 082°33'0 0.6
2017-Nov-09 09:52N 27°52' W 082°33'0 0.4
2017-Nov-09 09:30N 27°52' W 082°33'0 0.0
2017-Nov-09 09:00N 27°52' W 082°33'0 0.0
2017-Nov-09 08:30N 27°52' W 082°33'0 0.0
2017-Nov-09 08:00N 27°52' W 082°33'0 0.0
2017-Nov-09 07:30N 27°52' W 082°33'0 0.0
2017-Nov-09 07:00N 27°52' W 082°33'0 0.0
2017-Nov-09 06:30N 27°52' W 082°33'0 0.0
2017-Nov-09 06:00N 27°52' W 082°33'0 0.0
2017-Nov-09 05:30N 27°52' W 082°33'0 0.0
2017-Nov-09 05:00N 27°52' W 082°33'0 0.0
2017-Nov-09 04:30N 27°52' W 082°33'0 0.0
2017-Nov-09 04:00N 27°52' W 082°33'0 0.0
2017-Nov-09 03:30N 27°52' W 082°33'0 0.0
2017-Nov-09 03:00N 27°52' W 082°33'0 0.0
2017-Nov-09 02:30N 27°52' W 082°33'0 0.0
2017-Nov-09 02:00N 27°52' W 082°33'0 0.0
2017-Nov-09 01:30N 27°52' W 082°33'0 0.0
2017-Nov-09 01:00N 27°52' W 082°33'0 0.0
2017-Nov-09 00:30N 27°52' W 082°33'0 0.0
2017-Nov-09 00:00N 27°52' W 082°33'0 0.0
2017-Nov-08 23:30N 27°52' W 082°33'0 0.0
2017-Nov-08 23:01N 27°52' W 082°33'0 0.0
2017-Nov-08 22:30N 27°52' W 082°33'0 0.0
2017-Nov-08 22:00N 27°52' W 082°33'0 0.0
2017-Nov-08 21:30N 27°52' W 082°33'0 0.0
2017-Nov-08 21:00N 27°52' W 082°33'0 0.0
2017-Nov-08 20:30N 27°52' W 082°33'0 0.0
2017-Nov-08 20:00N 27°52' W 082°33'0 0.0
2017-Nov-08 19:30N 27°52' W 082°33'0 0.5
2017-Nov-08 19:01N 27°52' W 082°33'0 0.2
2017-Nov-08 18:31N 27°52' W 082°33'8 2.1
2017-Nov-08 14:34N 27°48' W 082°24'0 0.9
2017-Nov-08 14:12N 27°48' W 082°25'0 2.2
2017-Nov-08 14:00N 27°48' W 082°25'3 5.5
2017-Nov-08 13:30N 27°48' W 082°28'2 3.4
2017-Nov-08 12:56N 27°50' W 082°27'4 9.4
2017-Nov-08 12:30N 27°54' W 082°26'2 3.7
2017-Nov-08 12:00N 27°55' W 082°27'0 0.0
2017-Nov-08 11:30N 27°55' W 082°27'0 0.0
2017-Nov-08 11:01N 27°55' W 082°27'0 0.0
2017-Nov-08 10:30N 27°55' W 082°27'0 0.0
2017-Nov-08 10:00N 27°55' W 082°27'0 0.0
2017-Nov-08 09:30N 27°55' W 082°27'0 0.0
2017-Nov-08 09:00N 27°55' W 082°27'0 0.0
2017-Nov-08 08:30N 27°55' W 082°27'0 0.0
2017-Nov-08 08:01N 27°55' W 082°27'0 0.0
2017-Nov-08 07:30N 27°55' W 082°27'0 0.0
2017-Nov-08 07:00N 27°55' W 082°27'2 3.1
2017-Nov-08 06:30N 27°57' W 082°27'0 0.8
2017-Nov-08 06:00N 27°56' W 082°27'2 3.1
2017-Nov-08 05:31N 27°55' W 082°27'2 4.0
2017-Nov-08 05:00N 27°53' W 082°26'2 4.8
2017-Nov-08 04:30N 27°55' W 082°27'0 0.0
2017-Nov-08 04:00N 27°55' W 082°27'0 0.0
2017-Nov-08 03:31N 27°55' W 082°27'0 0.0
2017-Nov-08 03:00N 27°55' W 082°27'0 0.0
2017-Nov-08 02:31N 27°55' W 082°27'0 0.0
2017-Nov-08 02:00N 27°55' W 082°27'0 0.0
2017-Nov-08 01:30N 27°55' W 082°27'0 0.0
2017-Nov-08 01:00N 27°55' W 082°27'0 0.0
2017-Nov-08 00:30N 27°55' W 082°27'0 0.0
2017-Nov-08 00:00N 27°55' W 082°27'0 0.0
2017-Nov-07 23:30N 27°55' W 082°27'0 0.0
2017-Nov-07 23:00N 27°55' W 082°27'0 0.0
2017-Nov-07 22:30N 27°55' W 082°27'0 0.0
2017-Nov-07 22:00N 27°55' W 082°27'0 0.0
2017-Nov-07 21:30N 27°55' W 082°27'3 6.6
2017-Nov-07 21:00N 27°52' W 082°27'5 6.8
2017-Nov-07 20:20N 27°48' W 082°25'1 0.1
2017-Nov-07 10:53N 27°49' W 082°26'3 4.8
2017-Nov-07 10:19N 27°51' W 082°27'310.6
2017-Nov-07 10:01N 27°54' W 082°26'1 2.6
2017-Nov-07 09:30N 27°56' W 082°26'1 1.7
2017-Nov-07 09:00N 27°55' W 082°27'0 0.0
2017-Nov-07 08:30N 27°55' W 082°27'1 2.2
2017-Nov-07 08:00N 27°54' W 082°26'2 3.7
2017-Nov-07 07:30N 27°52' W 082°26'1 1.4
2017-Nov-07 07:00N 27°53' W 082°26'2 4.5
2017-Nov-07 06:30N 27°55' W 082°27'0 0.0
2017-Nov-07 06:01N 27°55' W 082°27'0 0.4
2017-Nov-07 05:30N 27°55' W 082°27'0 0.4
2017-Nov-07 05:00N 27°55' W 082°27'0 0.5
2017-Nov-07 04:30N 27°55' W 082°27'0 0.0
2017-Nov-07 04:00N 27°55' W 082°27'0 0.0
2017-Nov-07 03:30N 27°55' W 082°27'0 0.0
2017-Nov-07 03:00N 27°55' W 082°27'0 0.0
2017-Nov-07 02:31N 27°55' W 082°27'0 0.0
2017-Nov-07 02:00N 27°55' W 082°27'0 0.0
2017-Nov-07 01:30N 27°55' W 082°27'0 0.0
2017-Nov-07 01:00N 27°55' W 082°27'0 0.0
2017-Nov-07 00:30N 27°55' W 082°27'0 0.0
2017-Nov-07 00:00N 27°55' W 082°27'0 0.0
2017-Nov-06 23:30N 27°55' W 082°27'0 0.0
2017-Nov-06 23:00N 27°55' W 082°27'0 0.0
2017-Nov-06 22:30N 27°55' W 082°27'0 0.0
2017-Nov-06 22:00N 27°55' W 082°27'0 0.0
2017-Nov-06 21:30N 27°55' W 082°27'1 1.9
2017-Nov-06 21:00N 27°56' W 082°26'0 0.5
2017-Nov-06 20:30N 27°56' W 082°26'1 0.1
2017-Nov-06 02:30N 27°55' W 082°27'0 0.0
2017-Nov-06 02:00N 27°55' W 082°27'0 0.0
2017-Nov-06 01:30N 27°55' W 082°27'0 0.0
2017-Nov-06 01:00N 27°55' W 082°27'0 0.0
2017-Nov-06 00:30N 27°55' W 082°27'0 0.0
2017-Nov-06 00:00N 27°55' W 082°27'0 0.0
2017-Nov-05 23:31N 27°55' W 082°27'0 0.0
2017-Nov-05 23:00N 27°55' W 082°27'0 0.0
2017-Nov-05 22:30N 27°55' W 082°27'0 0.0
2017-Nov-05 22:00N 27°55' W 082°27'0 0.0
2017-Nov-05 21:30N 27°55' W 082°27'0 0.0
2017-Nov-05 21:00N 27°55' W 082°27'0 0.0
2017-Nov-05 20:30N 27°55' W 082°27'0 0.0
2017-Nov-05 20:00N 27°55' W 082°27'0 0.0
2017-Nov-05 19:30N 27°55' W 082°27'0 0.6
2017-Nov-05 19:00N 27°55' W 082°27'1 1.1
2017-Nov-05 18:30N 27°55' W 082°26'2 3.3
2017-Nov-05 18:01N 27°53' W 082°26'2 4.9
2017-Nov-05 17:30N 27°55' W 082°27'0 0.0
2017-Nov-05 17:01N 27°55' W 082°27'0 0.0
2017-Nov-05 16:30N 27°55' W 082°27'0 0.6
2017-Nov-05 16:00N 27°55' W 082°27'0 0.3
2017-Nov-05 15:30N 27°55' W 082°27'1 1.1
2017-Nov-05 15:00N 27°54' W 082°26'2 3.0
2017-Nov-05 14:29N 27°53' W 082°26'2 4.2
2017-Nov-05 14:00N 27°55' W 082°27'0 1.0
2017-Nov-05 13:30N 27°55' W 082°27'0 0.0
2017-Nov-05 13:00N 27°55' W 082°27'0 0.0
2017-Nov-05 12:30N 27°55' W 082°27'1 1.2
2017-Nov-05 12:00N 27°56' W 082°27'0 0.1
2017-Nov-05 11:30N 27°56' W 082°27'1 2.1
2017-Nov-05 11:00N 27°55' W 082°27'0 0.1
2017-Nov-05 10:30N 27°55' W 082°27'0 0.9
2017-Nov-05 10:00N 27°55' W 082°27'0 0.0
2017-Nov-05 09:30N 27°55' W 082°27'0 0.0
2017-Nov-05 09:01N 27°55' W 082°27'0 0.0
2017-Nov-05 08:30N 27°55' W 082°27'0 0.0
2017-Nov-05 08:00N 27°55' W 082°27'0 0.0
2017-Nov-05 07:30N 27°55' W 082°27'0 0.0
2017-Nov-05 07:00N 27°55' W 082°27'0 0.0
2017-Nov-05 06:30N 27°55' W 082°27'0 0.0
2017-Nov-05 06:01N 27°55' W 082°27'0 0.0
2017-Nov-05 05:30N 27°55' W 082°27'0 0.0
2017-Nov-05 05:00N 27°55' W 082°27'0 0.0
2017-Nov-05 04:30N 27°55' W 082°27'0 0.0
2017-Nov-05 04:00N 27°55' W 082°27'0 0.0
2017-Nov-05 03:30N 27°55' W 082°27'0 0.0
2017-Nov-05 03:00N 27°55' W 082°27'0 0.0
2017-Nov-05 02:30N 27°55' W 082°27'0 0.0
2017-Nov-05 02:00N 27°55' W 082°27'0 0.0
2017-Nov-05 01:31N 27°55' W 082°27'0 0.0
2017-Nov-05 01:01N 27°55' W 082°27'0 0.0
2017-Nov-05 00:30N 27°55' W 082°27'0 0.0
2017-Nov-05 00:00N 27°55' W 082°27'0 0.0
2017-Nov-04 23:30N 27°55' W 082°27'0 0.0
2017-Nov-04 23:00N 27°55' W 082°27'0 0.0
2017-Nov-04 22:30N 27°55' W 082°27'0 0.0
2017-Nov-04 22:00N 27°55' W 082°27'0 0.0
2017-Nov-04 21:30N 27°55' W 082°27'0 0.0
2017-Nov-04 21:00N 27°55' W 082°27'0 0.0
2017-Nov-04 20:30N 27°55' W 082°27'0 0.0
2017-Nov-04 20:00N 27°55' W 082°27'0 0.0
2017-Nov-04 19:30N 27°55' W 082°27'0 0.0
2017-Nov-04 19:00N 27°55' W 082°27'0 0.0
2017-Nov-04 18:31N 27°55' W 082°27'0 0.0
2017-Nov-04 18:00N 27°55' W 082°27'0 0.0
2017-Nov-04 17:30N 27°55' W 082°27'0 0.0
2017-Nov-04 17:00N 27°55' W 082°27'0 0.0
2017-Nov-04 16:31N 27°55' W 082°27'0 0.0
2017-Nov-04 16:00N 27°55' W 082°27'0 0.8
2017-Nov-04 15:30N 27°55' W 082°27'0 0.4
2017-Nov-04 15:01N 27°55' W 082°27'2 3.7
2017-Nov-04 14:29N 27°53' W 082°26'1 2.8
2017-Nov-04 14:00N 27°54' W 082°26'1 2.4
2017-Nov-04 13:30N 27°55' W 082°27'0 0.0
2017-Nov-04 13:00N 27°55' W 082°27'0 0.0
2017-Nov-04 12:30N 27°55' W 082°27'0 0.0
2017-Nov-04 12:00N 27°55' W 082°27'0 0.0
2017-Nov-04 11:30N 27°55' W 082°27'0 0.0
2017-Nov-04 11:00N 27°55' W 082°27'0 0.0
2017-Nov-04 10:31N 27°55' W 082°27'0 0.0
2017-Nov-04 10:00N 27°55' W 082°27'0 0.0
2017-Nov-04 09:30N 27°55' W 082°27'0 0.0
2017-Nov-04 09:00N 27°55' W 082°27'0 0.0
2017-Nov-04 08:30N 27°55' W 082°27'0 0.0
2017-Nov-04 08:00N 27°55' W 082°27'0 0.0
2017-Nov-04 07:30N 27°55' W 082°27'0 0.0
2017-Nov-04 07:00N 27°55' W 082°27'0 0.0
2017-Nov-04 06:30N 27°55' W 082°27'0 0.0
2017-Nov-04 06:00N 27°55' W 082°27'0 0.0
2017-Nov-04 05:30N 27°55' W 082°27'0 0.0
2017-Nov-04 05:00N 27°55' W 082°27'0 0.0
2017-Nov-04 04:30N 27°55' W 082°27'0 0.0
2017-Nov-04 04:01N 27°55' W 082°27'0 0.0
2017-Nov-04 03:30N 27°55' W 082°27'0 0.0
2017-Nov-04 03:00N 27°55' W 082°27'0 0.0
2017-Nov-04 02:30N 27°55' W 082°27'0 0.0
2017-Nov-04 02:00N 27°55' W 082°27'0 0.0
2017-Nov-04 01:30N 27°55' W 082°27'0 0.0
2017-Nov-04 01:00N 27°55' W 082°27'0 0.0
2017-Nov-04 00:31N 27°55' W 082°27'0 0.0
2017-Nov-04 00:00N 27°55' W 082°27'0 0.0
2017-Nov-03 23:30N 27°55' W 082°27'0 0.0
2017-Nov-03 23:00N 27°55' W 082°27'0 0.0
2017-Nov-03 22:30N 27°55' W 082°27'0 0.0
2017-Nov-03 22:00N 27°55' W 082°27'0 0.0
2017-Nov-03 21:31N 27°55' W 082°27'0 0.0
2017-Nov-03 21:00N 27°55' W 082°27'1 1.9
2017-Nov-03 20:30N 27°55' W 082°26'0 0.0
2017-Nov-03 20:00N 27°55' W 082°26'0 0.0
2017-Nov-03 19:30N 27°55' W 082°26'0 0.7
2017-Nov-03 19:00N 27°55' W 082°26'1 2.2
2017-Nov-03 18:31N 27°55' W 082°27'0 0.0
2017-Nov-03 18:00N 27°55' W 082°27'0 0.0
2017-Nov-03 17:31N 27°55' W 082°27'0 0.0
2017-Nov-03 17:00N 27°55' W 082°27'0 0.0
2017-Nov-03 16:30N 27°55' W 082°27'0 0.0
2017-Nov-03 16:00N 27°55' W 082°27'0 0.0
2017-Nov-03 15:30N 27°55' W 082°27'0 0.0
2017-Nov-03 15:00N 27°55' W 082°27'0 0.0
2017-Nov-03 14:30N 27°55' W 082°27'0 0.0
2017-Nov-03 14:00N 27°55' W 082°27'0 0.0
2017-Nov-03 13:30N 27°55' W 082°27'0 0.0
2017-Nov-03 13:00N 27°55' W 082°27'0 0.0
2017-Nov-03 12:30N 27°55' W 082°27'0 0.0
2017-Nov-03 12:00N 27°55' W 082°27'0 0.0
2017-Nov-03 11:31N 27°55' W 082°27'0 0.0
2017-Nov-03 11:01N 27°55' W 082°27'0 0.0
2017-Nov-03 10:30N 27°55' W 082°27'0 0.0
2017-Nov-03 10:01N 27°55' W 082°27'0 0.0
2017-Nov-03 09:30N 27°55' W 082°27'0 0.0
2017-Nov-03 09:00N 27°55' W 082°27'0 0.0
2017-Nov-03 08:30N 27°55' W 082°27'0 0.0
2017-Nov-03 08:01N 27°55' W 082°27'0 0.0
2017-Nov-03 07:31N 27°55' W 082°27'0 0.0
2017-Nov-03 07:01N 27°55' W 082°27'0 0.0
2017-Nov-03 06:30N 27°55' W 082°27'0 0.0
2017-Nov-03 06:00N 27°55' W 082°27'0 0.0
2017-Nov-03 05:31N 27°55' W 082°27'0 0.0
2017-Nov-03 05:00N 27°55' W 082°27'0 0.0
2017-Nov-03 04:31N 27°55' W 082°27'0 0.0
2017-Nov-03 04:00N 27°55' W 082°27'0 0.0
2017-Nov-03 03:30N 27°55' W 082°27'0 0.0
2017-Nov-03 03:01N 27°55' W 082°27'0 0.0
2017-Nov-03 02:31N 27°55' W 082°27'0 0.0
2017-Nov-03 02:01N 27°55' W 082°27'0 0.0
2017-Nov-03 01:30N 27°55' W 082°27'0 0.0
2017-Nov-03 01:00N 27°55' W 082°27'0 0.0
2017-Nov-03 00:30N 27°55' W 082°27'0 0.0
2017-Nov-03 00:00N 27°55' W 082°27'0 0.0
2017-Nov-02 23:30N 27°55' W 082°27'0 0.0
2017-Nov-02 23:00N 27°55' W 082°27'0 0.1
2017-Nov-02 22:30N 27°55' W 082°27'5 9.2
2017-Nov-02 22:00N 27°51' W 082°27'3 4.9
2017-Nov-02 21:26N 27°48' W 082°25'0 0.2
2017-Nov-02 20:21N 27°48' W 082°25'3 8.0
2017-Nov-02 19:59N 27°51' W 082°27'4 9.1
2017-Nov-02 19:31N 27°55' W 082°27'0 0.0
2017-Nov-02 19:01N 27°55' W 082°27'0 0.0
2017-Nov-02 18:30N 27°55' W 082°27'0 0.7
2017-Nov-02 18:01N 27°55' W 082°27'0 0.1
2017-Nov-02 17:30N 27°55' W 082°27'0 0.8
2017-Nov-02 17:01N 27°55' W 082°27'0 0.0
2017-Nov-02 16:31N 27°55' W 082°27'0 0.0
2017-Nov-02 16:01N 27°55' W 082°27'0 0.0
2017-Nov-02 15:30N 27°55' W 082°27'0 0.0
2017-Nov-02 15:01N 27°55' W 082°27'0 0.0
2017-Nov-02 14:30N 27°55' W 082°27'0 0.0
2017-Nov-02 14:00N 27°55' W 082°27'0 0.7
2017-Nov-02 13:31N 27°56' W 082°27'1 1.0
2017-Nov-02 13:01N 27°56' W 082°27'1 1.3
2017-Nov-02 12:31N 27°57' W 082°27'0 0.1
2017-Nov-02 12:01N 27°57' W 082°27'0 0.1
2017-Nov-02 11:31N 27°57' W 082°27'1 1.3
2017-Nov-02 11:01N 27°56' W 082°27'2 3.4
2017-Nov-02 10:30N 27°55' W 082°25'0 0.3
2017-Nov-02 10:00N 27°55' W 082°25'0 0.7
2017-Nov-02 09:30N 27°55' W 082°26'0 0.0
2017-Nov-02 09:01N 27°55' W 082°26'0 0.0
2017-Nov-02 08:30N 27°55' W 082°26'0 0.0
2017-Nov-02 08:01N 27°55' W 082°26'0 0.0
2017-Nov-02 07:31N 27°55' W 082°26'0 0.0
2017-Nov-02 07:00N 27°55' W 082°26'0 0.0
2017-Nov-02 06:30N 27°55' W 082°26'0 0.0
2017-Nov-02 06:00N 27°55' W 082°26'1 1.5
2017-Nov-02 05:31N 27°55' W 082°27'1 1.0
2017-Nov-02 05:01N 27°55' W 082°27'0 0.0
2017-Nov-02 04:30N 27°55' W 082°27'0 0.0
2017-Nov-02 04:00N 27°55' W 082°27'0 0.0
2017-Nov-02 03:30N 27°55' W 082°27'0 0.0
2017-Nov-02 03:01N 27°55' W 082°27'0 0.0
2017-Nov-02 02:30N 27°55' W 082°27'0 0.0
2017-Nov-02 02:01N 27°55' W 082°27'0 0.0
2017-Nov-02 01:30N 27°55' W 082°27'0 0.0
2017-Nov-02 01:00N 27°55' W 082°27'0 0.0
2017-Nov-02 00:31N 27°55' W 082°27'0 0.0
2017-Nov-02 00:01N 27°55' W 082°27'0 0.0
2017-Nov-01 23:30N 27°55' W 082°27'0 0.0
2017-Nov-01 23:01N 27°55' W 082°27'0 0.0
2017-Nov-01 22:31N 27°55' W 082°27'0 0.0
2017-Nov-01 22:01N 27°55' W 082°27'0 0.0
2017-Nov-01 21:30N 27°55' W 082°27'0 0.0
2017-Nov-01 21:00N 27°55' W 082°27'0 0.0
2017-Nov-01 20:31N 27°55' W 082°27'0 0.0
2017-Nov-01 20:01N 27°55' W 082°27'0 0.0
2017-Nov-01 19:30N 27°55' W 082°27'0 0.0
2017-Nov-01 19:00N 27°55' W 082°27'0 0.0
2017-Nov-01 18:31N 27°55' W 082°27'0 0.0
2017-Nov-01 02:00N 27°55' W 082°27'0 0.0
2017-Nov-01 01:30N 27°55' W 082°27'0 0.0
2017-Nov-01 01:01N 27°55' W 082°27'0 0.0
2017-Nov-01 00:31N 27°55' W 082°27'0 0.0
2017-Nov-01 00:00N 27°55' W 082°27'0 0.8
2017-Oct-31 23:30N 27°55' W 082°27'1 2.0
2017-Oct-31 23:00N 27°56' W 082°26'2 3.0
2017-Oct-31 22:31N 27°54' W 082°26'1 2.5
2017-Oct-31 22:00N 27°55' W 082°27'0 0.0
2017-Oct-31 21:31N 27°55' W 082°27'0 0.0
2017-Oct-31 21:01N 27°55' W 082°27'0 0.0
2017-Oct-31 20:31N 27°55' W 082°27'0 0.0
2017-Oct-31 20:01N 27°55' W 082°27'0 0.0
2017-Oct-31 19:31N 27°55' W 082°27'0 0.0
2017-Oct-31 19:00N 27°55' W 082°27'0 0.0
2017-Oct-31 18:30N 27°55' W 082°27'1 2.7
2017-Oct-31 18:01N 27°54' W 082°26'1 1.9
2017-Oct-31 17:31N 27°54' W 082°25'1 1.7
2017-Oct-31 17:00N 27°54' W 082°26'2 3.1
2017-Oct-31 16:30N 27°53' W 082°27'2 4.5
2017-Oct-31 16:00N 27°55' W 082°27'0 0.0
2017-Oct-31 15:31N 27°55' W 082°27'0 0.1
2017-Oct-31 15:00N 27°55' W 082°27'0 0.1
2017-Oct-31 14:30N 27°55' W 082°27'0 0.0
2017-Oct-31 14:01N 27°55' W 082°27'2 4.1
2017-Oct-31 13:30N 27°53' W 082°26'5 7.4
2017-Oct-31 12:49N 27°48' W 082°25'0 0.7
2017-Oct-31 12:30N 27°48' W 082°25'1 1.4
2017-Oct-31 12:01N 27°48' W 082°25'3 5.2
2017-Oct-31 11:30N 27°48' W 082°28'3 5.4
2017-Oct-31 11:00N 27°51' W 082°27'4 8.9
2017-Oct-31 10:30N 27°55' W 082°27'0 0.5
2017-Oct-31 10:01N 27°55' W 082°27'0 0.0
2017-Oct-31 09:30N 27°55' W 082°27'  

Dump ship's entire track history